sensor_id;sensor_type;location;lat;lon;timestamp;temperature;humidity
24152;DHT22;12311;50.866;4.332;2023-05-07T00:00:03;17.90;99.90
24152;DHT22;12311;50.866;4.332;2023-05-07T00:02:29;17.90;99.90
24152;DHT22;12311;50.866;4.332;2023-05-07T00:04:54;17.90;99.90
24152;DHT22;12311;50.866;4.332;2023-05-07T00:07:20;17.90;99.90
24152;DHT22;12311;50.866;4.332;2023-05-07T00:09:46;18.00;99.90
24152;DHT22;12311;50.866;4.332;2023-05-07T00:12:12;17.90;99.90
24152;DHT22;12311;50.866;4.332;2023-05-07T00:14:37;17.80;99.90
24152;DHT22;12311;50.866;4.332;2023-05-07T00:17:03;17.90;99.90
24152;DHT22;12311;50.866;4.332;2023-05-07T00:19:29;17.70;99.90
24152;DHT22;12311;50.866;4.332;2023-05-07T00:21:55;17.70;99.90
24152;DHT22;12311;50.866;4.332;2023-05-07T00:24:21;17.60;99.90
24152;DHT22;12311;50.866;4.332;2023-05-07T00:26:46;17.70;99.90
24152;DHT22;12311;50.866;4.332;2023-05-07T00:29:12;17.80;99.90
24152;DHT22;12311;50.866;4.332;2023-05-07T00:31:38;17.80;99.90
24152;DHT22;12311;50.866;4.332;2023-05-07T00:34:03;17.80;99.90
24152;DHT22;12311;50.866;4.332;2023-05-07T00:36:29;18.00;99.90
24152;DHT22;12311;50.866;4.332;2023-05-07T00:38:57;18.00;99.90
24152;DHT22;12311;50.866;4.332;2023-05-07T00:41:24;18.00;99.90
24152;DHT22;12311;50.866;4.332;2023-05-07T00:43:50;18.00;99.90
24152;DHT22;12311;50.866;4.332;2023-05-07T00:46:17;18.00;99.90
24152;DHT22;12311;50.866;4.332;2023-05-07T00:48:45;18.00;99.90
24152;DHT22;12311;50.866;4.332;2023-05-07T00:51:11;18.10;99.90
24152;DHT22;12311;50.866;4.332;2023-05-07T00:53:38;18.00;99.90
24152;DHT22;12311;50.866;4.332;2023-05-07T00:56:04;18.10;99.90
24152;DHT22;12311;50.866;4.332;2023-05-07T00:58:32;18.10;99.90
24152;DHT22;12311;50.866;4.332;2023-05-07T01:00:58;18.00;99.90
24152;DHT22;12311;50.866;4.332;2023-05-07T01:03:23;18.00;99.90
24152;DHT22;12311;50.866;4.332;2023-05-07T01:05:49;18.00;99.90
24152;DHT22;12311;50.866;4.332;2023-05-07T01:08:16;17.90;99.90
24152;DHT22;12311;50.866;4.332;2023-05-07T01:10:43;17.80;99.90
24152;DHT22;12311;50.866;4.332;2023-05-07T01:13:10;17.80;99.90
24152;DHT22;12311;50.866;4.332;2023-05-07T01:15:37;17.70;99.90
24152;DHT22;12311;50.866;4.332;2023-05-07T01:18:03;17.70;99.90
24152;DHT22;12311;50.866;4.332;2023-05-07T01:20:30;17.70;99.90
24152;DHT22;12311;50.866;4.332;2023-05-07T01:22:57;17.60;99.90
24152;DHT22;12311;50.866;4.332;2023-05-07T01:25:23;17.60;99.90
24152;DHT22;12311;50.866;4.332;2023-05-07T01:27:49;17.50;99.90
24152;DHT22;12311;50.866;4.332;2023-05-07T01:30:16;17.30;99.90
24152;DHT22;12311;50.866;4.332;2023-05-07T01:32:52;17.30;99.90
24152;DHT22;12311;50.866;4.332;2023-05-07T01:35:22;17.30;99.90
24152;DHT22;12311;50.866;4.332;2023-05-07T01:37:50;17.20;99.90
24152;DHT22;12311;50.866;4.332;2023-05-07T01:40:16;17.20;99.90
24152;DHT22;12311;50.866;4.332;2023-05-07T01:42:43;17.10;99.90
24152;DHT22;12311;50.866;4.332;2023-05-07T01:45:09;17.10;99.90
24152;DHT22;12311;50.866;4.332;2023-05-07T01:47:36;17.00;99.90
24152;DHT22;12311;50.866;4.332;2023-05-07T01:50:04;17.00;99.90
24152;DHT22;12311;50.866;4.332;2023-05-07T01:52:31;17.00;99.90
24152;DHT22;12311;50.866;4.332;2023-05-07T01:54:56;17.00;99.90
24152;DHT22;12311;50.866;4.332;2023-05-07T01:57:22;17.20;99.90
24152;DHT22;12311;50.866;4.332;2023-05-07T01:59:48;17.10;99.90
24152;DHT22;12311;50.866;4.332;2023-05-07T02:02:13;17.10;99.90
24152;DHT22;12311;50.866;4.332;2023-05-07T02:04:39;17.00;99.90
24152;DHT22;12311;50.866;4.332;2023-05-07T02:07:05;17.00;99.90
24152;DHT22;12311;50.866;4.332;2023-05-07T02:09:31;16.90;99.90
24152;DHT22;12311;50.866;4.332;2023-05-07T02:11:56;17.00;99.90
24152;DHT22;12311;50.866;4.332;2023-05-07T02:14:22;17.10;99.90
24152;DHT22;12311;50.866;4.332;2023-05-07T02:16:48;17.10;99.90
24152;DHT22;12311;50.866;4.332;2023-05-07T02:19:13;17.10;99.90
24152;DHT22;12311;50.866;4.332;2023-05-07T02:21:39;17.10;99.90
24152;DHT22;12311;50.866;4.332;2023-05-07T02:24:05;17.10;99.90
24152;DHT22;12311;50.866;4.332;2023-05-07T02:26:30;17.00;99.90
24152;DHT22;12311;50.866;4.332;2023-05-07T02:28:56;17.00;99.90
24152;DHT22;12311;50.866;4.332;2023-05-07T02:31:22;17.00;99.90
24152;DHT22;12311;50.866;4.332;2023-05-07T02:33:47;17.10;99.90
24152;DHT22;12311;50.866;4.332;2023-05-07T02:36:13;17.10;99.90
24152;DHT22;12311;50.866;4.332;2023-05-07T02:38:39;17.00;99.90
24152;DHT22;12311;50.866;4.332;2023-05-07T02:41:05;16.90;99.90
24152;DHT22;12311;50.866;4.332;2023-05-07T02:43:30;16.90;99.90
24152;DHT22;12311;50.866;4.332;2023-05-07T02:46:03;16.80;99.90
24152;DHT22;12311;50.866;4.332;2023-05-07T02:48:29;16.70;99.90
24152;DHT22;12311;50.866;4.332;2023-05-07T02:50:54;16.80;99.90
24152;DHT22;12311;50.866;4.332;2023-05-07T02:53:20;16.80;99.90
24152;DHT22;12311;50.866;4.332;2023-05-07T02:55:46;16.80;99.90
24152;DHT22;12311;50.866;4.332;2023-05-07T02:58:12;16.80;99.90
24152;DHT22;12311;50.866;4.332;2023-05-07T03:00:37;16.80;99.90
24152;DHT22;12311;50.866;4.332;2023-05-07T03:03:03;16.80;99.90
24152;DHT22;12311;50.866;4.332;2023-05-07T03:05:29;16.90;99.90
24152;DHT22;12311;50.866;4.332;2023-05-07T03:07:54;16.90;99.90
24152;DHT22;12311;50.866;4.332;2023-05-07T03:10:20;16.80;99.90
24152;DHT22;12311;50.866;4.332;2023-05-07T03:12:46;16.80;99.90
24152;DHT22;12311;50.866;4.332;2023-05-07T03:15:11;16.80;99.90
24152;DHT22;12311;50.866;4.332;2023-05-07T03:17:38;16.70;99.90
24152;DHT22;12311;50.866;4.332;2023-05-07T03:20:04;16.60;99.90
24152;DHT22;12311;50.866;4.332;2023-05-07T03:22:30;16.70;99.90
24152;DHT22;12311;50.866;4.332;2023-05-07T03:24:56;16.70;99.90
24152;DHT22;12311;50.866;4.332;2023-05-07T03:27:22;16.80;99.90
24152;DHT22;12311;50.866;4.332;2023-05-07T03:29:48;16.80;99.90
24152;DHT22;12311;50.866;4.332;2023-05-07T03:32:14;16.80;99.90
24152;DHT22;12311;50.866;4.332;2023-05-07T03:34:40;16.90;99.90
24152;DHT22;12311;50.866;4.332;2023-05-07T03:37:05;16.90;99.90
24152;DHT22;12311;50.866;4.332;2023-05-07T03:39:31;17.00;99.90
24152;DHT22;12311;50.866;4.332;2023-05-07T03:41:58;17.10;99.90
24152;DHT22;12311;50.866;4.332;2023-05-07T03:44:23;17.10;99.90
24152;DHT22;12311;50.866;4.332;2023-05-07T03:46:49;17.20;99.90
24152;DHT22;12311;50.866;4.332;2023-05-07T03:49:15;17.20;99.90
24152;DHT22;12311;50.866;4.332;2023-05-07T03:51:41;17.20;99.90
24152;DHT22;12311;50.866;4.332;2023-05-07T03:54:07;17.20;99.90
24152;DHT22;12311;50.866;4.332;2023-05-07T03:56:32;17.30;99.90
24152;DHT22;12311;50.866;4.332;2023-05-07T03:58:58;17.30;99.90
24152;DHT22;12311;50.866;4.332;2023-05-07T04:01:24;17.30;99.90
24152;DHT22;12311;50.866;4.332;2023-05-07T04:03:49;17.40;99.90
24152;DHT22;12311;50.866;4.332;2023-05-07T04:06:16;17.40;99.90
24152;DHT22;12311;50.866;4.332;2023-05-07T04:08:42;17.40;99.90
24152;DHT22;12311;50.866;4.332;2023-05-07T04:11:08;17.40;99.90
24152;DHT22;12311;50.866;4.332;2023-05-07T04:13:34;17.40;99.90
24152;DHT22;12311;50.866;4.332;2023-05-07T04:16:01;17.40;99.90
24152;DHT22;12311;50.866;4.332;2023-05-07T04:18:28;17.40;99.90
24152;DHT22;12311;50.866;4.332;2023-05-07T04:20:53;17.50;99.90
24152;DHT22;12311;50.866;4.332;2023-05-07T04:23:19;17.50;99.90
24152;DHT22;12311;50.866;4.332;2023-05-07T04:25:45;17.50;99.90
24152;DHT22;12311;50.866;4.332;2023-05-07T04:28:11;17.40;99.90
24152;DHT22;12311;50.866;4.332;2023-05-07T04:30:37;17.50;99.90
24152;DHT22;12311;50.866;4.332;2023-05-07T04:33:02;17.50;99.90
24152;DHT22;12311;50.866;4.332;2023-05-07T04:35:28;17.40;99.90
24152;DHT22;12311;50.866;4.332;2023-05-07T04:37:54;17.40;99.90
24152;DHT22;12311;50.866;4.332;2023-05-07T04:40:19;17.50;99.90
24152;DHT22;12311;50.866;4.332;2023-05-07T04:42:45;17.60;99.90
24152;DHT22;12311;50.866;4.332;2023-05-07T04:45:11;17.60;99.90
24152;DHT22;12311;50.866;4.332;2023-05-07T04:47:38;17.60;99.90
24152;DHT22;12311;50.866;4.332;2023-05-07T04:50:04;17.60;99.90
24152;DHT22;12311;50.866;4.332;2023-05-07T04:52:29;17.70;99.90
24152;DHT22;12311;50.866;4.332;2023-05-07T04:54:55;17.70;99.90
24152;DHT22;12311;50.866;4.332;2023-05-07T04:57:21;17.70;99.90
24152;DHT22;12311;50.866;4.332;2023-05-07T04:59:46;17.70;99.90
24152;DHT22;12311;50.866;4.332;2023-05-07T05:02:12;17.90;99.90
24152;DHT22;12311;50.866;4.332;2023-05-07T05:04:38;17.90;99.90
24152;DHT22;12311;50.866;4.332;2023-05-07T05:07:04;17.90;99.90
24152;DHT22;12311;50.866;4.332;2023-05-07T05:09:30;17.80;99.90
24152;DHT22;12311;50.866;4.332;2023-05-07T05:11:55;17.90;99.90
24152;DHT22;12311;50.866;4.332;2023-05-07T05:14:21;17.90;99.90
24152;DHT22;12311;50.866;4.332;2023-05-07T05:16:47;18.00;99.90
24152;DHT22;12311;50.866;4.332;2023-05-07T05:19:12;18.10;99.90
24152;DHT22;12311;50.866;4.332;2023-05-07T05:21:38;18.20;99.90
24152;DHT22;12311;50.866;4.332;2023-05-07T05:24:04;18.30;99.90
24152;DHT22;12311;50.866;4.332;2023-05-07T05:26:30;18.30;99.90
24152;DHT22;12311;50.866;4.332;2023-05-07T05:28:55;18.50;99.90
24152;DHT22;12311;50.866;4.332;2023-05-07T05:31:21;18.50;99.90
24152;DHT22;12311;50.866;4.332;2023-05-07T05:33:47;18.60;99.90
24152;DHT22;12311;50.866;4.332;2023-05-07T05:36:12;18.70;99.90
24152;DHT22;12311;50.866;4.332;2023-05-07T05:38:39;18.80;99.90
24152;DHT22;12311;50.866;4.332;2023-05-07T05:41:05;18.80;99.90
24152;DHT22;12311;50.866;4.332;2023-05-07T05:43:31;18.90;99.90
24152;DHT22;12311;50.866;4.332;2023-05-07T05:45:57;18.90;99.90
24152;DHT22;12311;50.866;4.332;2023-05-07T05:48:23;18.90;99.90
24152;DHT22;12311;50.866;4.332;2023-05-07T05:50:48;18.90;99.90
24152;DHT22;12311;50.866;4.332;2023-05-07T05:53:14;18.80;99.90
24152;DHT22;12311;50.866;4.332;2023-05-07T05:55:41;18.60;99.90
24152;DHT22;12311;50.866;4.332;2023-05-07T05:58:07;18.70;99.90
24152;DHT22;12311;50.866;4.332;2023-05-07T06:00:33;18.60;99.90
24152;DHT22;12311;50.866;4.332;2023-05-07T06:02:58;18.50;99.90
24152;DHT22;12311;50.866;4.332;2023-05-07T06:05:24;18.30;99.90
24152;DHT22;12311;50.866;4.332;2023-05-07T06:07:50;18.10;99.90
24152;DHT22;12311;50.866;4.332;2023-05-07T06:10:16;17.90;99.90
24152;DHT22;12311;50.866;4.332;2023-05-07T06:12:41;17.80;99.90
24152;DHT22;12311;50.866;4.332;2023-05-07T06:15:07;17.80;99.90
24152;DHT22;12311;50.866;4.332;2023-05-07T06:17:33;17.60;99.90
24152;DHT22;12311;50.866;4.332;2023-05-07T06:19:59;17.60;99.90
24152;DHT22;12311;50.866;4.332;2023-05-07T06:22:24;17.60;99.90
24152;DHT22;12311;50.866;4.332;2023-05-07T06:24:50;17.60;99.90
24152;DHT22;12311;50.866;4.332;2023-05-07T06:27:16;17.60;99.90
24152;DHT22;12311;50.866;4.332;2023-05-07T06:29:42;17.50;99.90
24152;DHT22;12311;50.866;4.332;2023-05-07T06:32:11;17.50;99.90
24152;DHT22;12311;50.866;4.332;2023-05-07T06:34:38;17.40;99.90
24152;DHT22;12311;50.866;4.332;2023-05-07T06:37:04;17.40;99.90
24152;DHT22;12311;50.866;4.332;2023-05-07T06:39:30;17.40;99.90
24152;DHT22;12311;50.866;4.332;2023-05-07T06:41:55;17.40;99.90
24152;DHT22;12311;50.866;4.332;2023-05-07T06:44:21;17.40;99.90
24152;DHT22;12311;50.866;4.332;2023-05-07T06:46:47;17.20;99.90
24152;DHT22;12311;50.866;4.332;2023-05-07T06:49:13;17.00;99.90
24152;DHT22;12311;50.866;4.332;2023-05-07T06:51:39;17.00;99.90
24152;DHT22;12311;50.866;4.332;2023-05-07T06:54:05;17.00;99.90
24152;DHT22;12311;50.866;4.332;2023-05-07T06:56:31;17.20;99.90
24152;DHT22;12311;50.866;4.332;2023-05-07T06:58:57;17.20;99.90
24152;DHT22;12311;50.866;4.332;2023-05-07T07:01:23;17.20;99.90
24152;DHT22;12311;50.866;4.332;2023-05-07T07:03:48;17.00;99.90
24152;DHT22;12311;50.866;4.332;2023-05-07T07:06:14;17.00;99.90
24152;DHT22;12311;50.866;4.332;2023-05-07T07:08:40;17.00;99.90
24152;DHT22;12311;50.866;4.332;2023-05-07T07:11:06;17.10;99.90
24152;DHT22;12311;50.866;4.332;2023-05-07T07:13:31;17.00;99.90
24152;DHT22;12311;50.866;4.332;2023-05-07T07:15:58;16.80;99.90
24152;DHT22;12311;50.866;4.332;2023-05-07T07:18:24;16.70;99.90
24152;DHT22;12311;50.866;4.332;2023-05-07T07:20:50;16.60;99.90
24152;DHT22;12311;50.866;4.332;2023-05-07T07:23:16;16.60;99.90
24152;DHT22;12311;50.866;4.332;2023-05-07T07:25:41;16.40;99.90
24152;DHT22;12311;50.866;4.332;2023-05-07T07:28:07;16.40;99.90
24152;DHT22;12311;50.866;4.332;2023-05-07T07:30:33;16.40;99.90
24152;DHT22;12311;50.866;4.332;2023-05-07T07:32:59;16.40;99.90
24152;DHT22;12311;50.866;4.332;2023-05-07T07:35:34;16.30;99.90
24152;DHT22;12311;50.866;4.332;2023-05-07T07:37:59;16.30;99.90
24152;DHT22;12311;50.866;4.332;2023-05-07T07:40:25;16.20;99.90
24152;DHT22;12311;50.866;4.332;2023-05-07T07:42:52;16.30;99.90
24152;DHT22;12311;50.866;4.332;2023-05-07T07:45:18;16.30;99.90
24152;DHT22;12311;50.866;4.332;2023-05-07T07:47:43;16.30;99.90
24152;DHT22;12311;50.866;4.332;2023-05-07T07:50:10;16.30;99.90
24152;DHT22;12311;50.866;4.332;2023-05-07T07:52:35;16.30;99.90
24152;DHT22;12311;50.866;4.332;2023-05-07T07:55:01;16.30;99.90
24152;DHT22;12311;50.866;4.332;2023-05-07T07:57:27;16.40;99.90
24152;DHT22;12311;50.866;4.332;2023-05-07T07:59:53;16.50;99.90
24152;DHT22;12311;50.866;4.332;2023-05-07T08:02:18;16.70;99.90
24152;DHT22;12311;50.866;4.332;2023-05-07T08:04:44;16.60;99.90
24152;DHT22;12311;50.866;4.332;2023-05-07T08:07:10;16.70;99.90
24152;DHT22;12311;50.866;4.332;2023-05-07T08:09:37;16.50;99.90
24152;DHT22;12311;50.866;4.332;2023-05-07T08:12:03;16.60;99.90
24152;DHT22;12311;50.866;4.332;2023-05-07T08:14:29;16.70;99.90
24152;DHT22;12311;50.866;4.332;2023-05-07T08:16:55;16.50;99.90
24152;DHT22;12311;50.866;4.332;2023-05-07T08:19:21;16.50;99.90
24152;DHT22;12311;50.866;4.332;2023-05-07T08:21:48;16.80;99.90
24152;DHT22;12311;50.866;4.332;2023-05-07T08:24:17;16.80;99.90
24152;DHT22;12311;50.866;4.332;2023-05-07T08:26:44;16.90;99.90
24152;DHT22;12311;50.866;4.332;2023-05-07T08:29:10;16.90;99.90
24152;DHT22;12311;50.866;4.332;2023-05-07T08:31:36;16.90;99.90
24152;DHT22;12311;50.866;4.332;2023-05-07T08:34:04;16.90;99.90
24152;DHT22;12311;50.866;4.332;2023-05-07T08:36:30;16.90;99.90
24152;DHT22;12311;50.866;4.332;2023-05-07T08:38:56;16.70;99.90
24152;DHT22;12311;50.866;4.332;2023-05-07T08:41:22;16.70;99.90
24152;DHT22;12311;50.866;4.332;2023-05-07T08:43:49;16.70;99.90
24152;DHT22;12311;50.866;4.332;2023-05-07T08:46:22;16.70;99.90
24152;DHT22;12311;50.866;4.332;2023-05-07T08:48:48;16.70;99.90
24152;DHT22;12311;50.866;4.332;2023-05-07T08:51:20;16.80;99.90
24152;DHT22;12311;50.866;4.332;2023-05-07T08:53:47;16.70;99.90
24152;DHT22;12311;50.866;4.332;2023-05-07T08:56:14;16.80;99.90
24152;DHT22;12311;50.866;4.332;2023-05-07T08:58:44;16.80;99.90
24152;DHT22;12311;50.866;4.332;2023-05-07T09:01:14;17.00;99.90
24152;DHT22;12311;50.866;4.332;2023-05-07T09:03:40;17.10;99.90
24152;DHT22;12311;50.866;4.332;2023-05-07T09:06:06;17.00;99.90
24152;DHT22;12311;50.866;4.332;2023-05-07T09:08:35;17.20;99.90
24152;DHT22;12311;50.866;4.332;2023-05-07T09:11:01;17.20;99.90
24152;DHT22;12311;50.866;4.332;2023-05-07T09:13:28;17.30;99.90
24152;DHT22;12311;50.866;4.332;2023-05-07T09:15:53;17.40;99.90
24152;DHT22;12311;50.866;4.332;2023-05-07T09:18:19;17.60;99.90
24152;DHT22;12311;50.866;4.332;2023-05-07T09:20:45;17.70;99.90
24152;DHT22;12311;50.866;4.332;2023-05-07T09:23:11;17.50;99.90
24152;DHT22;12311;50.866;4.332;2023-05-07T09:25:37;17.40;99.90
24152;DHT22;12311;50.866;4.332;2023-05-07T09:28:04;17.40;99.90
24152;DHT22;12311;50.866;4.332;2023-05-07T09:30:31;17.50;99.90
24152;DHT22;12311;50.866;4.332;2023-05-07T09:33:02;17.60;99.90
24152;DHT22;12311;50.866;4.332;2023-05-07T09:35:29;17.50;99.90
24152;DHT22;12311;50.866;4.332;2023-05-07T09:37:59;17.40;99.90
24152;DHT22;12311;50.866;4.332;2023-05-07T09:40:29;17.50;99.90
24152;DHT22;12311;50.866;4.332;2023-05-07T09:42:56;17.50;99.90
24152;DHT22;12311;50.866;4.332;2023-05-07T09:45:26;17.50;99.90
24152;DHT22;12311;50.866;4.332;2023-05-07T09:47:57;17.60;99.90
24152;DHT22;12311;50.866;4.332;2023-05-07T09:50:28;17.70;99.90
24152;DHT22;12311;50.866;4.332;2023-05-07T09:52:56;17.80;99.90
24152;DHT22;12311;50.866;4.332;2023-05-07T09:55:22;17.90;99.90
24152;DHT22;12311;50.866;4.332;2023-05-07T09:57:50;17.90;99.90
24152;DHT22;12311;50.866;4.332;2023-05-07T10:00:18;17.80;99.90
24152;DHT22;12311;50.866;4.332;2023-05-07T10:02:46;17.90;99.90
24152;DHT22;12311;50.866;4.332;2023-05-07T10:05:15;17.80;99.90
24152;DHT22;12311;50.866;4.332;2023-05-07T10:07:41;17.80;99.90
24152;DHT22;12311;50.866;4.332;2023-05-07T10:10:07;17.90;99.90
24152;DHT22;12311;50.866;4.332;2023-05-07T10:12:33;17.80;99.90
24152;DHT22;12311;50.866;4.332;2023-05-07T10:15:06;17.80;99.90
24152;DHT22;12311;50.866;4.332;2023-05-07T10:17:38;17.50;99.90
24152;DHT22;12311;50.866;4.332;2023-05-07T10:20:08;17.20;99.90
24152;DHT22;12311;50.866;4.332;2023-05-07T10:22:53;17.10;99.90
24152;DHT22;12311;50.866;4.332;2023-05-07T10:25:23;17.10;99.90
24152;DHT22;12311;50.866;4.332;2023-05-07T10:27:52;17.20;99.90
24152;DHT22;12311;50.866;4.332;2023-05-07T10:33:11;17.10;99.90
24152;DHT22;12311;50.866;4.332;2023-05-07T10:35:41;17.10;99.90
24152;DHT22;12311;50.866;4.332;2023-05-07T10:38:08;17.10;99.90
24152;DHT22;12311;50.866;4.332;2023-05-07T10:40:34;17.20;99.90
24152;DHT22;12311;50.866;4.332;2023-05-07T10:43:02;17.30;99.90
24152;DHT22;12311;50.866;4.332;2023-05-07T10:45:31;17.30;99.90
24152;DHT22;12311;50.866;4.332;2023-05-07T10:50:44;17.20;99.90
24152;DHT22;12311;50.866;4.332;2023-05-07T10:55:42;17.20;99.90
24152;DHT22;12311;50.866;4.332;2023-05-07T10:58:27;17.30;99.90
24152;DHT22;12311;50.866;4.332;2023-05-07T11:01:00;17.50;99.90
24152;DHT22;12311;50.866;4.332;2023-05-07T11:03:27;17.50;99.90
24152;DHT22;12311;50.866;4.332;2023-05-07T11:06:10;17.50;99.90
24152;DHT22;12311;50.866;4.332;2023-05-07T11:08:52;17.70;99.90
24152;DHT22;12311;50.866;4.332;2023-05-07T11:11:18;17.60;99.90
24152;DHT22;12311;50.866;4.332;2023-05-07T11:13:47;17.30;99.90
24152;DHT22;12311;50.866;4.332;2023-05-07T11:16:23;17.60;99.90
24152;DHT22;12311;50.866;4.332;2023-05-07T11:18:52;17.80;99.90
24152;DHT22;12311;50.866;4.332;2023-05-07T11:21:38;18.10;99.90
24152;DHT22;12311;50.866;4.332;2023-05-07T11:24:05;18.20;99.90
24152;DHT22;12311;50.866;4.332;2023-05-07T11:26:48;18.30;99.90
24152;DHT22;12311;50.866;4.332;2023-05-07T11:29:19;18.10;99.90
24152;DHT22;12311;50.866;4.332;2023-05-07T11:31:54;18.10;99.90
24152;DHT22;12311;50.866;4.332;2023-05-07T11:34:25;18.30;99.90
24152;DHT22;12311;50.866;4.332;2023-05-07T11:36:51;18.50;99.90
24152;DHT22;12311;50.866;4.332;2023-05-07T11:39:28;18.30;99.90
24152;DHT22;12311;50.866;4.332;2023-05-07T11:41:55;18.20;99.90
24152;DHT22;12311;50.866;4.332;2023-05-07T11:44:20;18.30;99.90
24152;DHT22;12311;50.866;4.332;2023-05-07T11:46:46;18.30;99.90
24152;DHT22;12311;50.866;4.332;2023-05-07T11:49:12;18.20;99.90
24152;DHT22;12311;50.866;4.332;2023-05-07T11:51:38;18.40;99.90
24152;DHT22;12311;50.866;4.332;2023-05-07T11:54:05;18.00;99.90
24152;DHT22;12311;50.866;4.332;2023-05-07T11:56:34;18.00;99.90
24152;DHT22;12311;50.866;4.332;2023-05-07T11:59:04;17.90;99.90
24152;DHT22;12311;50.866;4.332;2023-05-07T12:01:30;18.00;99.90
24152;DHT22;12311;50.866;4.332;2023-05-07T12:03:56;18.00;99.90
24152;DHT22;12311;50.866;4.332;2023-05-07T12:06:21;18.10;99.90
24152;DHT22;12311;50.866;4.332;2023-05-07T12:08:47;18.20;99.90
24152;DHT22;12311;50.866;4.332;2023-05-07T12:11:23;18.20;99.90
24152;DHT22;12311;50.866;4.332;2023-05-07T12:13:49;18.40;99.90
24152;DHT22;12311;50.866;4.332;2023-05-07T12:16:15;18.40;99.90
24152;DHT22;12311;50.866;4.332;2023-05-07T12:18:41;18.30;99.90
24152;DHT22;12311;50.866;4.332;2023-05-07T12:21:10;18.40;99.90
24152;DHT22;12311;50.866;4.332;2023-05-07T12:23:37;18.50;99.90
24152;DHT22;12311;50.866;4.332;2023-05-07T12:26:03;18.60;99.90
24152;DHT22;12311;50.866;4.332;2023-05-07T12:28:29;18.80;99.90
24152;DHT22;12311;50.866;4.332;2023-05-07T12:30:57;18.90;99.90
24152;DHT22;12311;50.866;4.332;2023-05-07T12:33:26;19.00;99.90
24152;DHT22;12311;50.866;4.332;2023-05-07T12:35:54;18.90;99.90
24152;DHT22;12311;50.866;4.332;2023-05-07T12:38:21;18.90;99.90
24152;DHT22;12311;50.866;4.332;2023-05-07T12:40:48;19.20;99.90
24152;DHT22;12311;50.866;4.332;2023-05-07T12:43:27;19.40;99.90
24152;DHT22;12311;50.866;4.332;2023-05-07T12:45:58;19.80;99.90
24152;DHT22;12311;50.866;4.332;2023-05-07T12:48:25;19.70;99.90
24152;DHT22;12311;50.866;4.332;2023-05-07T12:50:54;19.50;99.90
24152;DHT22;12311;50.866;4.332;2023-05-07T12:53:22;19.60;99.90
24152;DHT22;12311;50.866;4.332;2023-05-07T12:55:49;19.70;99.90
24152;DHT22;12311;50.866;4.332;2023-05-07T12:58:25;20.00;99.90
24152;DHT22;12311;50.866;4.332;2023-05-07T13:00:52;20.10;99.90
24152;DHT22;12311;50.866;4.332;2023-05-07T13:03:29;20.00;99.90
24152;DHT22;12311;50.866;4.332;2023-05-07T13:06:00;19.70;99.90
24152;DHT22;12311;50.866;4.332;2023-05-07T13:08:30;19.50;99.90
24152;DHT22;12311;50.866;4.332;2023-05-07T13:10:57;19.20;99.90
24152;DHT22;12311;50.866;4.332;2023-05-07T13:13:23;19.20;99.90
24152;DHT22;12311;50.866;4.332;2023-05-07T13:15:49;19.50;99.90
24152;DHT22;12311;50.866;4.332;2023-05-07T13:18:15;19.80;99.90
24152;DHT22;12311;50.866;4.332;2023-05-07T13:20:40;19.90;99.90
24152;DHT22;12311;50.866;4.332;2023-05-07T13:23:06;20.00;99.90
24152;DHT22;12311;50.866;4.332;2023-05-07T13:25:32;20.00;99.90
24152;DHT22;12311;50.866;4.332;2023-05-07T13:27:57;20.00;99.90
24152;DHT22;12311;50.866;4.332;2023-05-07T13:30:23;19.80;99.90
24152;DHT22;12311;50.866;4.332;2023-05-07T13:32:49;19.90;99.90
24152;DHT22;12311;50.866;4.332;2023-05-07T13:35:16;19.80;99.90
24152;DHT22;12311;50.866;4.332;2023-05-07T13:37:42;19.90;99.90
24152;DHT22;12311;50.866;4.332;2023-05-07T13:40:08;19.90;99.90
24152;DHT22;12311;50.866;4.332;2023-05-07T13:42:34;20.00;99.90
24152;DHT22;12311;50.866;4.332;2023-05-07T13:44:59;20.10;99.90
24152;DHT22;12311;50.866;4.332;2023-05-07T13:47:30;20.20;99.90
24152;DHT22;12311;50.866;4.332;2023-05-07T13:49:56;20.10;99.90
24152;DHT22;12311;50.866;4.332;2023-05-07T13:52:22;20.20;99.90
24152;DHT22;12311;50.866;4.332;2023-05-07T13:54:47;20.20;99.90
24152;DHT22;12311;50.866;4.332;2023-05-07T13:57:13;20.00;99.90
24152;DHT22;12311;50.866;4.332;2023-05-07T13:59:39;20.00;99.90
24152;DHT22;12311;50.866;4.332;2023-05-07T14:02:05;19.90;99.90
24152;DHT22;12311;50.866;4.332;2023-05-07T14:04:31;20.10;99.90
24152;DHT22;12311;50.866;4.332;2023-05-07T14:06:57;20.10;99.90
24152;DHT22;12311;50.866;4.332;2023-05-07T14:09:22;20.10;99.90
24152;DHT22;12311;50.866;4.332;2023-05-07T14:11:48;20.30;99.90
24152;DHT22;12311;50.866;4.332;2023-05-07T14:14:19;20.50;99.90
24152;DHT22;12311;50.866;4.332;2023-05-07T14:16:45;20.80;99.90
24152;DHT22;12311;50.866;4.332;2023-05-07T14:19:12;21.00;99.90
24152;DHT22;12311;50.866;4.332;2023-05-07T14:21:37;21.00;99.90
24152;DHT22;12311;50.866;4.332;2023-05-07T14:24:05;20.80;99.90
24152;DHT22;12311;50.866;4.332;2023-05-07T14:26:31;20.70;99.90
24152;DHT22;12311;50.866;4.332;2023-05-07T14:28:56;20.70;99.90
24152;DHT22;12311;50.866;4.332;2023-05-07T14:31:24;20.90;99.90
24152;DHT22;12311;50.866;4.332;2023-05-07T14:33:50;21.00;99.90
24152;DHT22;12311;50.866;4.332;2023-05-07T14:36:16;21.20;99.90
24152;DHT22;12311;50.866;4.332;2023-05-07T14:38:42;21.10;99.90
24152;DHT22;12311;50.866;4.332;2023-05-07T14:41:08;21.10;99.90
24152;DHT22;12311;50.866;4.332;2023-05-07T14:43:34;21.10;99.90
24152;DHT22;12311;50.866;4.332;2023-05-07T14:45:59;21.20;99.90
24152;DHT22;12311;50.866;4.332;2023-05-07T14:48:25;21.20;99.90
24152;DHT22;12311;50.866;4.332;2023-05-07T14:50:51;21.20;99.90
24152;DHT22;12311;50.866;4.332;2023-05-07T14:53:16;21.20;99.90
24152;DHT22;12311;50.866;4.332;2023-05-07T14:55:42;21.00;99.90
24152;DHT22;12311;50.866;4.332;2023-05-07T14:58:08;20.70;99.90
24152;DHT22;12311;50.866;4.332;2023-05-07T15:00:33;20.40;99.90
24152;DHT22;12311;50.866;4.332;2023-05-07T15:03:09;20.50;99.90
24152;DHT22;12311;50.866;4.332;2023-05-07T15:05:36;20.60;99.90
24152;DHT22;12311;50.866;4.332;2023-05-07T15:08:02;20.40;99.90
24152;DHT22;12311;50.866;4.332;2023-05-07T15:10:28;20.50;99.90
24152;DHT22;12311;50.866;4.332;2023-05-07T15:12:54;20.40;99.90
24152;DHT22;12311;50.866;4.332;2023-05-07T15:15:19;20.60;99.90
24152;DHT22;12311;50.866;4.332;2023-05-07T15:17:45;20.70;99.90
24152;DHT22;12311;50.866;4.332;2023-05-07T15:20:11;20.90;99.90
24152;DHT22;12311;50.866;4.332;2023-05-07T15:22:37;20.70;99.90
24152;DHT22;12311;50.866;4.332;2023-05-07T15:25:05;20.50;99.90
24152;DHT22;12311;50.866;4.332;2023-05-07T15:27:31;20.30;99.90
24152;DHT22;12311;50.866;4.332;2023-05-07T15:29:57;20.00;99.90
24152;DHT22;12311;50.866;4.332;2023-05-07T15:32:23;19.80;99.90
24152;DHT22;12311;50.866;4.332;2023-05-07T15:34:48;19.90;99.90